Time;durP1;ratioP1;P1;durP2;ratioP2;P2;SDS_P1;SDS_P2;PMS_P1;PMS_P2;Temp;Humidity;BMP_temperature;BMP_pressure;BME280_temperature;BME280_humidity;BME280_pressure;Samples;Min_cycle;Max_cycle;Signal;HPM_P1;HPM_P2
2022/08/11 00:00:01;;;;;;;0.70;0.70;;;18.40;93.70;;;;;;5027947;28;20438;-59
2022/08/11 00:02:33;;;;;;;0.70;0.70;;;18.40;93.80;;;;;;5028983;28;20574;-59
2022/08/11 00:05:05;;;;;;;0.60;0.60;;;18.30;93.80;;;;;;5027719;28;20435;-59
2022/08/11 00:07:33;;;;;;;0.50;0.50;;;18.20;93.90;;;;;;5029590;28;21022;-59
2022/08/11 00:10:01;;;;;;;0.60;0.60;;;18.20;93.90;;;;;;5029354;28;20466;-59
2022/08/11 00:12:28;;;;;;;0.65;0.65;;;18.30;94.00;;;;;;5026157;28;20427;-59
2022/08/11 00:14:58;;;;;;;1.20;0.65;;;18.30;94.10;;;;;;5024396;28;20561;-59
2022/08/11 00:17:31;;;;;;;0.63;0.63;;;18.20;94.00;;;;;;5010095;28;20432;-59
2022/08/11 00:20:08;;;;;;;0.88;0.88;;;18.20;94.20;;;;;;5009925;28;20443;-59
2022/08/11 00:22:45;;;;;;;1.20;0.63;;;18.10;94.20;;;;;;5009312;28;20432;-59
2022/08/11 00:25:18;;;;;;;0.77;0.50;;;18.10;94.30;;;;;;5020424;28;20445;-58
2022/08/11 00:27:46;;;;;;;0.60;0.60;;;18.00;94.40;;;;;;5033694;28;20917;-59
2022/08/11 00:30:14;;;;;;;0.85;0.85;;;18.00;94.40;;;;;;5037175;28;20543;-60
2022/08/11 00:32:53;;;;;;;0.55;0.55;;;17.90;94.50;;;;;;5049254;28;20519;-59
2022/08/11 00:35:27;;;;;;;0.50;0.50;;;17.90;94.70;;;;;;5049050;28;20498;-59
2022/08/11 00:38:15;;;;;;;0.77;0.77;;;17.80;94.60;;;;;;5049197;28;20936;-59
2022/08/11 00:40:50;;;;;;;0.60;0.60;;;17.80;94.60;;;;;;5048355;28;20437;-58
2022/08/11 00:43:54;;;;;;;1.20;0.60;;;17.80;94.60;;;;;;5048573;28;20443;-59
2022/08/11 00:46:24;;;;;;;0.57;0.57;;;17.90;94.40;;;;;;5009485;28;20532;-59
2022/08/11 00:49:24;;;;;;;0.50;0.50;;;18.00;94.70;;;;;;5041565;28;20840;-59
2022/08/11 00:52:29;;;;;;;0.80;0.80;;;17.90;94.40;;;;;;5052762;28;20433;-59
2022/08/11 00:55:22;;;;;;;0.68;0.60;;;17.90;94.40;;;;;;5028823;28;20850;-59
2022/08/11 00:58:22;;;;;;;0.63;0.63;;;17.80;94.60;;;;;;5066952;28;20829;-59
2022/08/11 01:01:06;;;;;;;0.57;0.57;;;17.70;94.70;;;;;;5049088;28;20544;-58
2022/08/11 01:04:20;;;;;;;0.70;0.70;;;17.60;94.80;;;;;;5049161;28;20429;-59
2022/08/11 01:07:21;;;;;;;0.70;0.70;;;17.60;94.90;;;;;;5029657;28;20489;-59
2022/08/11 01:10:29;;;;;;;0.60;0.57;;;17.60;94.90;;;;;;5025303;28;20426;-59
2022/08/11 01:13:15;;;;;;;1.50;0.85;;;17.50;94.90;;;;;;5029417;28;21024;-59
2022/08/11 01:16:04;;;;;;;0.60;0.60;;;17.50;95.10;;;;;;5029759;28;20422;-59
2022/08/11 01:18:59;;;;;;;0.70;0.70;;;17.50;95.00;;;;;;5029510;28;20423;-59
2022/08/11 01:22:03;;;;;;;0.77;0.70;;;17.40;95.00;;;;;;5029546;28;20509;-58
2022/08/11 01:24:50;;;;;;;0.60;0.60;;;17.40;95.10;;;;;;4994246;28;20482;-59
2022/08/11 01:27:36;;;;;;;1.20;0.63;;;17.30;95.30;;;;;;5049298;28;20429;-59
2022/08/11 01:30:18;;;;;;;0.82;0.82;;;17.30;95.40;;;;;;5032730;28;20477;-59
2022/08/11 01:33:24;;;;;;;0.57;0.57;;;17.20;95.40;;;;;;5047356;28;20439;-59
2022/08/11 01:36:15;;;;;;;1.15;0.80;;;17.20;95.60;;;;;;5012029;28;20895;-59
2022/08/11 01:38:56;;;;;;;0.70;0.70;;;17.20;95.70;;;;;;5012754;28;20439;-59
2022/08/11 01:44:44;;;;;;;0.60;0.60;;;17.10;95.80;;;;;;5011688;28;20494;-58
2022/08/11 01:47:52;;;;;;;0.75;0.75;;;17.00;95.90;;;;;;5012255;28;20890;-59
2022/08/11 01:50:43;;;;;;;0.70;0.70;;;17.00;95.90;;;;;;5011809;28;21032;-59
2022/08/11 01:53:34;;;;;;;0.63;0.63;;;17.00;95.90;;;;;;5018992;28;20435;-58
2022/08/11 01:56:19;;;;;;;0.70;0.70;;;17.00;95.90;;;;;;5024913;28;20456;-59
2022/08/11 01:59:08;;;;;;;0.80;0.80;;;17.00;95.90;;;;;;5011741;28;20428;-59
2022/08/11 02:01:49;;;;;;;0.80;0.80;;;17.00;96.00;;;;;;5011801;28;20519;-59
2022/08/11 02:05:03;;;;;;;0.80;0.80;;;17.00;96.00;;;;;;5011151;28;20440;-59
2022/08/11 02:08:09;;;;;;;0.80;0.80;;;17.00;95.90;;;;;;5019348;28;20467;-59
2022/08/11 02:13:46;;;;;;;1.17;0.77;;;17.00;95.90;;;;;;5011282;28;20432;-58
2022/08/11 02:16:54;;;;;;;0.88;0.88;;;16.90;96.00;;;;;;5027836;28;20452;-58
2022/08/11 02:25:50;;;;;;;0.60;0.60;;;16.90;96.20;;;;;;5011473;28;20848;-58
2022/08/11 02:28:51;;;;;;;0.70;0.70;;;16.80;96.20;;;;;;5029907;28;20892;-58
2022/08/11 02:34:46;;;;;;;1.00;0.80;;;16.70;96.30;;;;;;5010743;28;20471;-58
2022/08/11 02:37:31;;;;;;;0.55;0.55;;;16.70;96.40;;;;;;5010897;28;21181;-58
2022/08/11 02:39:59;;;;;;;0.70;0.70;;;16.60;96.60;;;;;;5011095;28;20536;-58
2022/08/11 02:42:50;;;;;;;0.80;0.75;;;16.60;96.70;;;;;;5010241;28;20424;-58
2022/08/11 02:45:28;;;;;;;0.80;0.80;;;16.50;96.80;;;;;;5042726;28;20455;-58
2022/08/11 02:51:32;;;;;;;0.47;0.47;;;16.40;97.10;;;;;;5014045;28;20521;-58
2022/08/11 02:54:20;;;;;;;0.73;0.73;;;16.40;97.20;;;;;;5030250;28;20439;-59
2022/08/11 02:57:11;;;;;;;0.60;0.60;;;16.30;97.20;;;;;;5030654;28;20952;-58
2022/08/11 02:59:59;;;;;;;0.70;0.70;;;16.40;97.30;;;;;;5010708;28;20436;-59
2022/08/11 03:02:47;;;;;;;0.70;0.70;;;16.30;97.30;;;;;;5010509;28;20494;-58
2022/08/11 03:05:30;;;;;;;0.80;0.80;;;16.30;97.30;;;;;;5010287;28;20490;-58
2022/08/11 03:08:29;;;;;;;0.77;0.77;;;16.30;97.30;;;;;;5010707;28;20823;-59
2022/08/11 03:17:05;;;;;;;0.70;0.70;;;16.20;97.50;;;;;;5028581;28;20525;-58
2022/08/11 03:20:02;;;;;;;0.70;0.70;;;16.10;97.50;;;;;;5030361;28;20438;-59
2022/08/11 03:22:37;;;;;;;0.60;0.60;;;16.10;97.60;;;;;;5019006;28;20829;-58
2022/08/11 03:25:17;;;;;;;0.70;0.70;;;16.10;97.60;;;;;;5010070;28;20429;-58
2022/08/11 03:27:48;;;;;;;0.70;0.70;;;16.00;97.70;;;;;;5023292;28;20440;-58
2022/08/11 03:30:33;;;;;;;0.88;0.88;;;16.00;97.70;;;;;;5029940;28;20435;-58
2022/08/11 03:36:40;;;;;;;0.52;0.52;;;16.10;97.60;;;;;;5010418;28;20451;-58
2022/08/11 03:39:45;;;;;;;0.70;0.70;;;16.10;97.60;;;;;;5010531;28;20827;-59
2022/08/11 03:42:40;;;;;;;0.80;0.80;;;16.10;97.60;;;;;;5010081;28;20429;-59
2022/08/11 03:45:32;;;;;;;0.98;0.98;;;16.10;97.60;;;;;;5009710;28;20475;-58
2022/08/11 03:48:23;;;;;;;0.60;0.60;;;16.20;97.50;;;;;;5010368;28;20437;-58
2022/08/11 03:51:14;;;;;;;0.68;0.68;;;16.30;97.40;;;;;;5034633;28;20425;-58
2022/08/11 03:53:59;;;;;;;0.73;0.73;;;16.30;97.40;;;;;;5041104;28;20517;-58
2022/08/11 03:57:03;;;;;;;0.80;0.80;;;16.30;97.30;;;;;;5029376;28;20430;-58
2022/08/11 03:59:49;;;;;;;0.73;0.73;;;16.30;97.30;;;;;;5029870;28;20764;-58
2022/08/11 04:02:54;;;;;;;0.90;0.70;;;16.30;97.30;;;;;;5018624;28;20531;-59
2022/08/11 04:06:12;;;;;;;0.73;0.73;;;16.30;97.40;;;;;;5022945;28;20466;-59
2022/08/11 04:09:06;;;;;;;1.00;0.90;;;16.30;97.40;;;;;;5019532;28;20529;-59
2022/08/11 04:11:53;;;;;;;0.70;0.70;;;16.20;97.40;;;;;;5029760;28;20529;-59
2022/08/11 04:17:39;;;;;;;0.60;0.60;;;16.20;97.60;;;;;;5009497;28;20424;-59
2022/08/11 04:20:09;;;;;;;0.70;0.70;;;16.10;97.70;;;;;;5010468;28;20434;-59
2022/08/11 04:22:54;;;;;;;0.85;0.80;;;16.10;97.80;;;;;;5019654;28;20460;-59
2022/08/11 04:25:32;;;;;;;0.70;0.70;;;16.00;97.80;;;;;;5013543;28;20502;-59
2022/08/11 04:28:43;;;;;;;0.70;0.70;;;16.00;97.90;;;;;;5013802;28;20435;-59
2022/08/11 04:31:28;;;;;;;0.80;0.80;;;16.00;97.90;;;;;;5013586;28;20439;-59
2022/08/11 04:34:44;;;;;;;0.85;0.82;;;16.10;98.00;;;;;;5012738;28;20431;-58
2022/08/11 04:37:33;;;;;;;0.98;0.90;;;16.10;98.00;;;;;;5013368;28;20854;-59
2022/08/11 04:40:27;;;;;;;0.80;0.80;;;16.10;98.10;;;;;;5013437;28;20435;-59
2022/08/11 04:43:22;;;;;;;1.20;0.83;;;16.20;98.10;;;;;;5032993;28;20521;-59
2022/08/11 04:46:19;;;;;;;0.93;0.93;;;16.20;98.00;;;;;;5030300;28;20546;-59
2022/08/11 05:02:38;;;;;;;0.70;0.70;;;16.80;97.60;;;;;;5036888;28;20437;-59
2022/08/11 05:05:32;;;;;;;0.70;0.70;;;16.90;97.50;;;;;;5046432;28;20429;-59
2022/08/11 05:08:49;;;;;;;0.60;0.60;;;17.00;97.60;;;;;;5051990;28;20437;-59
2022/08/11 05:11:30;;;;;;;2.25;0.75;;;17.00;97.50;;;;;;5047341;28;20517;-59
2022/08/11 05:34:54;;;;;;;0.63;0.63;;;18.30;96.60;;;;;;5010009;28;20483;-59
2022/08/11 05:37:37;;;;;;;0.70;0.70;;;18.80;96.60;;;;;;5012652;28;20443;-59
2022/08/11 05:57:37;;;;;;;0.70;0.70;;;21.80;93.30;;;;;;5011599;28;20437;-59
2022/08/11 06:00:18;;;;;;;0.75;0.75;;;22.40;92.90;;;;;;5012000;28;20447;-60
2022/08/11 06:02:57;;;;;;;0.80;0.80;;;23.00;92.10;;;;;;5012068;28;20515;-59
2022/08/11 06:05:33;;;;;;;0.80;0.80;;;23.10;91.70;;;;;;5011630;28;20898;-60
2022/08/11 06:08:11;;;;;;;0.90;0.70;;;23.50;91.40;;;;;;5011881;28;20429;-59
2022/08/11 06:10:41;;;;;;;0.70;0.70;;;23.70;91.10;;;;;;5011785;28;20907;-59
2022/08/11 06:13:13;;;;;;;0.73;0.60;;;24.10;91.00;;;;;;5011491;28;20432;-59
2022/08/11 06:15:48;;;;;;;0.75;0.75;;;24.20;90.70;;;;;;5011483;28;20468;-59
2022/08/11 06:18:15;;;;;;;0.70;0.70;;;24.50;90.60;;;;;;5026600;28;20429;-59
2022/08/11 06:20:56;;;;;;;0.77;0.77;;;24.80;90.10;;;;;;5024189;28;20856;-59
2022/08/11 06:23:31;;;;;;;0.77;0.77;;;25.30;89.90;;;;;;5014748;28;20436;-58
2022/08/11 06:25:58;;;;;;;0.80;0.80;;;25.50;89.10;;;;;;5011529;28;20464;-59
2022/08/11 06:28:46;;;;;;;0.70;0.70;;;25.80;88.50;;;;;;5011287;28;20444;-59
2022/08/11 06:31:18;;;;;;;0.80;0.80;;;25.40;88.00;;;;;;5011151;28;21130;-59
2022/08/11 06:34:04;;;;;;;0.65;0.65;;;25.70;88.20;;;;;;5010874;28;20923;-59
2022/08/11 06:36:57;;;;;;;0.70;0.70;;;25.60;88.00;;;;;;5010830;28;20883;-59
2022/08/11 06:39:51;;;;;;;0.68;0.68;;;25.70;87.50;;;;;;5009558;28;20448;-59
2022/08/11 06:42:46;;;;;;;0.60;0.60;;;26.20;87.20;;;;;;5009650;28;20429;-60
2022/08/11 06:45:40;;;;;;;0.70;0.70;;;26.50;86.40;;;;;;5009490;28;20504;-59
2022/08/11 06:48:15;;;;;;;0.80;0.80;;;26.70;86.40;;;;;;5011188;28;20428;-60
2022/08/11 06:53:37;;;;;;;0.80;0.80;;;27.30;85.90;;;;;;5014587;28;20876;-60
2022/08/11 07:01:46;;;;;;;0.52;0.52;;;27.20;84.70;;;;;;5030812;28;20430;-59
2022/08/11 07:04:38;;;;;;;0.93;0.65;;;27.50;85.10;;;;;;5029941;28;20438;-59
2022/08/11 07:16:24;;;;;;;0.80;0.80;;;27.90;83.60;;;;;;5010357;28;20535;-59
2022/08/11 07:30:33;;;;;;;0.70;0.70;;;27.50;83.80;;;;;;5010517;28;20443;-59
2022/08/11 07:33:01;;;;;;;0.90;0.90;;;27.80;82.80;;;;;;5009906;28;20433;-59
2022/08/11 07:35:41;;;;;;;0.70;0.70;;;27.90;83.80;;;;;;5010115;28;20432;-58
2022/08/11 07:38:16;;;;;;;0.70;0.70;;;28.30;82.90;;;;;;5009819;28;20554;-58
2022/08/11 07:40:49;;;;;;;0.55;0.55;;;28.10;82.70;;;;;;5010447;28;20443;-59
2022/08/11 07:43:16;;;;;;;0.73;0.73;;;28.10;82.40;;;;;;5009900;28;20564;-59
2022/08/11 07:54:09;;;;;;;0.60;0.60;;;27.40;84.20;;;;;;5029238;28;20431;-59
2022/08/11 07:56:43;;;;;;;0.60;0.60;;;27.80;82.80;;;;;;5029711;28;20431;-60
2022/08/11 08:19:22;;;;;;;0.50;0.50;;;28.50;82.30;;;;;;5029700;28;20427;-60
2022/08/11 08:21:49;;;;;;;0.50;0.50;;;29.20;82.10;;;;;;5029307;28;20441;-60
2022/08/11 08:24:19;;;;;;;0.60;0.60;;;29.40;81.10;;;;;;5029088;28;20458;-60
2022/08/11 08:26:57;;;;;;;0.75;0.75;;;29.70;80.30;;;;;;5029370;28;20893;-60
2022/08/11 08:32:31;;;;;;;0.50;0.50;;;29.70;80.40;;;;;;5028153;28;20487;-60
2022/08/11 08:34:59;;;;;;;0.50;0.50;;;29.60;80.30;;;;;;5009309;28;20523;-60
2022/08/11 08:37:26;;;;;;;0.57;0.57;;;29.60;80.20;;;;;;5009778;28;20443;-59
2022/08/11 08:40:13;;;;;;;0.63;0.63;;;29.60;80.40;;;;;;5009324;28;20428;-60
2022/08/11 08:43:02;;;;;;;0.50;0.50;;;29.80;80.70;;;;;;5009638;28;20442;-60
2022/08/11 08:45:33;;;;;;;0.50;0.50;;;30.10;80.20;;;;;;5009745;28;20474;-60
2022/08/11 08:48:09;;;;;;;0.50;0.50;;;30.20;79.90;;;;;;5009705;28;20468;-60
2022/08/11 08:53:51;;;;;;;0.80;0.80;;;29.90;79.60;;;;;;5008831;28;20436;-60
2022/08/11 08:56:27;;;;;;;0.60;0.60;;;29.50;80.10;;;;;;5009365;28;20436;-60
2022/08/11 08:58:57;;;;;;;0.90;0.90;;;29.20;80.50;;;;;;5024570;28;20995;-60
2022/08/11 09:01:27;;;;;;;0.50;0.50;;;28.30;80.90;;;;;;5009817;28;20542;-59
2022/08/11 09:03:57;;;;;;;0.70;0.70;;;28.60;83.60;;;;;;5008906;28;20527;-60
2022/08/11 09:06:38;;;;;;;0.40;0.40;;;29.00;81.60;;;;;;5009421;28;20440;-60
2022/08/11 09:09:07;;;;;;;0.60;0.60;;;29.40;81.70;;;;;;5041744;28;20482;-60
2022/08/11 09:11:54;;;;;;;0.50;0.50;;;29.30;81.10;;;;;;5012873;28;20963;-60
2022/08/11 09:15:02;;;;;;;0.63;0.63;;;29.30;80.20;;;;;;5012512;28;20436;-61
2022/08/11 09:17:45;;;;;;;0.63;0.63;;;29.20;80.90;;;;;;5017634;28;20805;-60
2022/08/11 09:20:28;;;;;;;0.60;0.60;;;29.60;80.60;;;;;;5032346;28;20961;-61
2022/08/11 09:28:59;;;;;;;0.60;0.60;;;30.10;80.00;;;;;;5032430;28;20517;-60
2022/08/11 09:31:32;;;;;;;0.50;0.50;;;29.70;79.00;;;;;;5032131;28;20431;-60
2022/08/11 09:34:10;;;;;;;0.47;0.47;;;29.50;79.40;;;;;;5036270;28;20429;-60
2022/08/11 09:42:19;;;;;;;0.50;0.50;;;28.80;80.50;;;;;;5051911;28;20467;-60
2022/08/11 09:44:51;;;;;;;0.50;0.50;;;29.00;80.70;;;;;;5051362;28;20429;-61
2022/08/11 09:47:28;;;;;;;0.77;0.70;;;29.10;79.90;;;;;;5051972;28;20429;-60
2022/08/11 09:50:00;;;;;;;0.65;0.65;;;29.20;80.60;;;;;;5031597;28;20432;-61
2022/08/11 09:52:34;;;;;;;0.68;0.68;;;29.70;80.00;;;;;;5013546;28;20436;-61
2022/08/11 09:55:05;;;;;;;0.50;0.50;;;29.60;79.70;;;;;;5027079;28;20463;-60
2022/08/11 10:00:19;;;;;;;0.50;0.50;;;29.30;78.40;;;;;;5011962;28;20918;-60
2022/08/11 10:02:49;;;;;;;0.55;0.55;;;29.70;78.80;;;;;;5011847;28;20443;-60
2022/08/11 10:08:06;;;;;;;0.57;0.57;;;31.00;77.10;;;;;;5011586;28;20428;-61
2022/08/11 10:10:37;;;;;;;0.50;0.50;;;29.90;78.10;;;;;;5011401;28;20433;-60
2022/08/11 10:13:09;;;;;;;0.43;0.43;;;30.40;77.10;;;;;;5011421;28;20456;-61
2022/08/11 10:15:59;;;;;;;0.63;0.63;;;30.40;76.80;;;;;;5011433;28;20443;-64
2022/08/11 10:18:52;;;;;;;0.47;0.47;;;30.40;76.20;;;;;;5023799;28;20438;-61
2022/08/11 10:27:26;;;;;;;0.50;0.50;;;30.50;76.30;;;;;;5030833;28;20810;-61
2022/08/11 10:36:09;;;;;;;0.52;0.52;;;30.70;75.60;;;;;;5010993;28;20527;-60
2022/08/11 10:38:44;;;;;;;0.55;0.55;;;30.70;74.80;;;;;;5010107;28;21061;-59
2022/08/11 10:43:59;;;;;;;0.65;0.65;;;30.60;75.00;;;;;;5009856;28;20938;-60
2022/08/11 10:49:17;;;;;;;1.20;0.50;;;29.90;76.60;;;;;;5026819;28;20434;-60
2022/08/11 11:00:06;;;;;;;0.50;0.50;;;30.20;75.90;;;;;;5011362;28;21150;-59
2022/08/11 11:02:33;;;;;;;0.50;0.50;;;30.50;76.00;;;;;;5014666;28;20931;-59
2022/08/11 11:05:11;;;;;;;0.60;0.60;;;30.60;74.80;;;;;;5009738;28;20515;-59
2022/08/11 11:08:51;;;;;;;0.50;0.50;;;31.20;73.80;;;;;;5009778;28;20472;-60
2022/08/11 11:10:53;;;;;;;0.40;0.40;;;31.30;73.30;;;;;;5009949;28;20987;-59
2022/08/11 11:17:54;;;;;;;0.43;0.43;;;31.70;72.30;;;;;;5009732;28;20460;-59
2022/08/11 11:19:11;;;;;;;0.60;0.60;;;31.80;72.20;;;;;;5024534;28;20510;-59
2022/08/11 11:21:39;;;;;;;0.50;0.50;;;31.70;72.00;;;;;;5029737;28;20435;-59
2022/08/11 11:24:26;;;;;;;1.00;0.60;;;31.90;72.60;;;;;;5020865;28;20430;-59
2022/08/11 11:27:11;;;;;;;0.60;0.60;;;31.00;72.10;;;;;;5029989;28;20459;-59
2022/08/11 11:29:57;;;;;;;0.50;0.50;;;30.30;72.70;;;;;;5029495;28;20437;-59
2022/08/11 11:32:48;;;;;;;0.30;0.30;;;30.10;74.10;;;;;;5028864;28;20435;-60
2022/08/11 11:35:25;;;;;;;0.60;0.60;;;30.20;73.50;;;;;;5028631;28;20430;-60
2022/08/11 11:37:54;;;;;;;0.70;0.70;;;30.90;73.20;;;;;;5029501;28;20441;-60
2022/08/11 11:40:36;;;;;;;0.43;0.43;;;31.40;72.80;;;;;;5027869;28;20434;-60
2022/08/11 11:43:06;;;;;;;0.40;0.40;;;31.80;71.90;;;;;;5028304;28;20957;-60
2022/08/11 11:45:35;;;;;;;0.60;0.60;;;31.50;71.40;;;;;;5029360;28;20906;-60
2022/08/11 11:48:03;;;;;;;0.52;0.52;;;31.60;72.20;;;;;;5029510;28;20509;-59
2022/08/11 11:50:36;;;;;;;0.50;0.50;;;31.60;72.10;;;;;;5029467;28;20513;-60
2022/08/11 11:53:05;;;;;;;0.50;0.50;;;32.30;70.80;;;;;;5029078;28;20515;-60
2022/08/11 11:55:32;;;;;;;0.80;0.80;;;32.20;70.60;;;;;;5029263;28;20507;-59
2022/08/11 12:03:36;;;;;;;0.60;0.60;;;30.80;71.20;;;;;;5027837;28;20533;-60
2022/08/11 12:06:12;;;;;;;0.60;0.60;;;31.50;72.90;;;;;;5011465;28;20495;-60
2022/08/11 12:08:41;;;;;;;0.60;0.60;;;31.90;72.00;;;;;;5009929;28;20450;-60
2022/08/11 12:14:01;;;;;;;0.60;0.60;;;32.30;69.80;;;;;;5008844;28;20953;-60
2022/08/11 12:16:32;;;;;;;0.60;0.60;;;31.90;70.80;;;;;;5009274;28;20436;-61
2022/08/11 12:19:12;;;;;;;0.77;0.77;;;31.70;71.00;;;;;;5009220;28;20474;-60
2022/08/11 12:27:29;;;;;;;0.68;0.68;;;31.50;71.40;;;;;;5009544;28;20432;-61
2022/08/11 12:30:08;;;;;;;0.60;0.60;;;31.20;71.20;;;;;;5009677;28;20788;-60
2022/08/11 12:32:40;;;;;;;0.55;0.55;;;31.30;71.10;;;;;;5009658;28;20995;-60
2022/08/11 12:35:07;;;;;;;0.60;0.60;;;31.40;70.60;;;;;;5008883;28;20512;-59
2022/08/11 12:37:50;;;;;;;0.60;0.60;;;31.80;70.40;;;;;;5009563;28;20435;-59
2022/08/11 12:46:27;;;;;;;0.60;0.60;;;31.40;71.80;;;;;;5033463;28;20434;-60
2022/08/11 12:52:00;;;;;;;0.50;0.50;;;32.40;70.30;;;;;;5033086;28;20513;-60
2022/08/11 12:54:48;;;;;;;0.50;0.50;;;32.30;69.80;;;;;;5032701;28;20426;-61
2022/08/11 13:05:42;;;;;;;0.50;0.50;;;32.60;66.90;;;;;;5012907;28;20440;-60
2022/08/11 13:08:13;;;;;;;0.70;0.70;;;32.50;69.50;;;;;;5012669;28;20432;-61
2022/08/11 13:13:28;;;;;;;0.60;0.60;;;33.00;69.20;;;;;;5032216;28;20442;-61
2022/08/11 13:16:16;;;;;;;0.80;0.80;;;33.40;67.10;;;;;;5043033;28;20815;-60
2022/08/11 13:18:43;;;;;;;0.57;0.57;;;33.20;67.40;;;;;;5012495;28;20437;-60
2022/08/11 13:21:12;;;;;;;0.65;0.65;;;32.90;67.40;;;;;;5021425;28;20430;-60
2022/08/11 13:23:56;;;;;;;0.60;0.60;;;32.90;67.40;;;;;;5032116;28;20502;-60
2022/08/11 13:26:28;;;;;;;0.50;0.50;;;32.70;67.10;;;;;;5031225;28;20435;-61
2022/08/11 13:29:25;;;;;;;0.57;0.57;;;33.00;67.80;;;;;;5023586;28;20432;-61
2022/08/11 13:31:54;;;;;;;0.70;0.70;;;33.80;66.80;;;;;;5012533;28;21001;-60
2022/08/11 13:34:25;;;;;;;0.60;0.60;;;33.80;66.20;;;;;;5019415;28;20816;-60
2022/08/11 13:36:59;;;;;;;0.43;0.43;;;33.90;65.50;;;;;;5032371;28;20496;-60
2022/08/11 13:39:30;;;;;;;0.60;0.60;;;33.40;65.60;;;;;;5031970;28;21006;-60
2022/08/11 13:42:00;;;;;;;0.60;0.60;;;33.30;65.10;;;;;;5026002;28;20831;-61
2022/08/11 13:44:29;;;;;;;0.90;0.77;;;33.20;65.00;;;;;;5011494;28;20437;-60
2022/08/11 13:47:05;;;;;;;0.70;0.70;;;33.90;65.90;;;;;;5031675;28;20537;-60
2022/08/11 13:49:36;;;;;;;0.70;0.70;;;33.50;66.00;;;;;;5013472;28;20515;-62
2022/08/11 13:52:11;;;;;;;0.60;0.60;;;34.40;66.30;;;;;;5011930;28;20436;-61
2022/08/11 13:54:40;;;;;;;0.65;0.65;;;34.60;65.20;;;;;;5010672;28;20459;-60
2022/08/11 13:57:11;;;;;;;0.70;0.70;;;34.30;66.40;;;;;;5011807;28;20435;-61
2022/08/11 14:00:08;;;;;;;0.70;0.70;;;34.40;66.00;;;;;;5011426;28;20517;-60
2022/08/11 14:02:55;;;;;;;0.90;0.90;;;35.20;66.60;;;;;;5011460;28;20444;-61
2022/08/11 14:05:37;;;;;;;0.55;0.55;;;35.50;64.80;;;;;;5014870;28;20462;-61
2022/08/11 14:08:12;;;;;;;0.70;0.70;;;36.20;63.80;;;;;;5020652;28;20486;-62
2022/08/11 14:14:17;;;;;;;0.70;0.70;;;35.00;63.00;;;;;;5050722;28;20431;-61
2022/08/11 14:16:47;;;;;;;0.70;0.70;;;34.60;63.80;;;;;;5030551;28;20505;-61
2022/08/11 14:19:17;;;;;;;0.45;0.45;;;33.80;62.70;;;;;;5031820;28;20674;-61
2022/08/11 14:24:37;;;;;;;0.50;0.50;;;34.10;64.60;;;;;;5030601;28;20893;-60
2022/08/11 14:27:06;;;;;;;0.60;0.60;;;35.30;61.90;;;;;;5037904;28;20433;-60
2022/08/11 14:29:53;;;;;;;0.60;0.60;;;36.00;61.20;;;;;;5028610;28;20419;-60
2022/08/11 14:32:21;;;;;;;0.80;0.80;;;36.40;60.80;;;;;;5031281;28;20438;-60
2022/08/11 14:34:52;;;;;;;0.77;0.77;;;36.60;60.00;;;;;;5030947;28;21018;-60
2022/08/11 14:37:21;;;;;;;0.70;0.70;;;36.50;61.90;;;;;;5031010;28;20506;-60
2022/08/11 14:39:55;;;;;;;0.50;0.50;;;37.20;59.90;;;;;;5030939;28;20463;-60
2022/08/11 14:48:25;;;;;;;0.95;0.80;;;35.50;60.00;;;;;;5010311;28;20425;-60
2022/08/11 14:50:52;;;;;;;0.50;0.50;;;34.30;62.40;;;;;;5025933;28;20531;-60
2022/08/11 14:53:22;;;;;;;0.52;0.52;;;33.50;62.90;;;;;;5010254;28;20447;-60
2022/08/11 14:58:42;;;;;;;0.70;0.70;;;33.80;62.30;;;;;;5010392;28;22139;-59
2022/08/11 15:03:08;;;;;;;0.75;0.75;;;34.80;61.60;;;;;;5010209;28;20432;-60
2022/08/11 15:03:58;;;;;;;0.60;0.60;;;35.40;60.80;;;;;;5009619;28;20425;-60
2022/08/11 15:06:50;;;;;;;0.70;0.70;;;36.80;59.80;;;;;;5009644;28;20452;-61
2022/08/11 15:09:17;;;;;;;0.57;0.57;;;37.60;58.80;;;;;;5010600;28;20432;-61
2022/08/11 15:17:40;;;;;;;0.60;0.60;;;37.20;57.80;;;;;;5010509;28;20430;-61
2022/08/11 15:25:51;;;;;;;0.53;0.53;;;36.20;59.20;;;;;;5010108;28;20440;-61
2022/08/11 15:46:29;;;;;;;0.70;0.70;;;36.20;60.60;;;;;;5029699;28;20818;-62
2022/08/11 15:49:09;;;;;;;0.50;0.50;;;37.10;59.20;;;;;;5015372;28;20462;-62
2022/08/11 15:51:55;;;;;;;0.70;0.70;;;36.00;59.70;;;;;;5009819;28;20521;-61
2022/08/11 15:54:29;;;;;;;0.80;0.80;;;34.50;61.10;;;;;;5009480;28;20451;-60
2022/08/11 15:57:00;;;;;;;0.43;0.43;;;33.70;62.10;;;;;;5009708;28;20433;-61
2022/08/11 16:05:12;;;;;;;0.60;0.60;;;33.60;62.50;;;;;;5022488;28;20427;-61
2022/08/11 16:07:47;;;;;;;0.65;0.65;;;34.60;62.50;;;;;;5023647;28;20464;-61
2022/08/11 16:10:20;;;;;;;0.60;0.60;;;35.80;60.20;;;;;;5010190;28;20436;-61
2022/08/11 16:16:14;;;;;;;0.60;0.60;;;36.90;60.40;;;;;;5023211;28;20447;-61
2022/08/11 16:18:55;;;;;;;0.67;0.67;;;35.80;61.10;;;;;;5012091;28;20899;-60
2022/08/11 16:21:43;;;;;;;0.60;0.60;;;34.80;61.80;;;;;;5013874;28;20479;-61
2022/08/11 16:24:13;;;;;;;0.50;0.50;;;33.10;64.00;;;;;;5012672;28;20443;-61
2022/08/11 16:27:02;;;;;;;0.60;0.60;;;32.60;64.80;;;;;;5013537;28;20420;-61
2022/08/11 16:29:43;;;;;;;0.70;0.70;;;32.00;66.00;;;;;;5013467;28;20428;-61
2022/08/11 16:32:20;;;;;;;0.63;0.63;;;31.50;65.90;;;;;;5029069;28;20434;-62
2022/08/11 16:40:27;;;;;;;0.50;0.50;;;30.90;67.30;;;;;;5033263;28;20880;-60
2022/08/11 16:48:32;;;;;;;0.50;0.50;;;30.70;68.90;;;;;;5033215;28;20464;-60
2022/08/11 16:51:10;;;;;;;0.60;0.60;;;30.50;68.50;;;;;;5033001;28;20469;-60
2022/08/11 16:53:38;;;;;;;0.57;0.57;;;30.40;68.50;;;;;;5032194;28;20525;-60
2022/08/11 16:56:42;;;;;;;0.65;0.65;;;30.20;68.20;;;;;;5031804;28;20430;-60
2022/08/11 16:59:15;;;;;;;0.60;0.60;;;30.10;69.00;;;;;;5064631;28;20889;-59
2022/08/11 17:01:54;;;;;;;0.68;0.68;;;29.90;68.50;;;;;;5012877;28;20833;-60
2022/08/11 17:14:01;;;;;;;0.50;0.50;;;29.60;70.20;;;;;;5014551;28;20440;-61
2022/08/11 17:16:35;;;;;;;0.52;0.52;;;29.50;70.20;;;;;;5031353;28;20430;-60
2022/08/11 17:19:13;;;;;;;0.52;0.52;;;29.40;70.80;;;;;;5047937;28;20426;-60
2022/08/11 17:24:35;;;;;;;0.70;0.70;;;29.30;70.20;;;;;;5031917;28;20439;-61
2022/08/11 17:27:07;;;;;;;0.60;0.60;;;29.30;70.00;;;;;;5032411;28;20434;-61
2022/08/11 17:29:38;;;;;;;0.70;0.70;;;29.30;71.00;;;;;;5031389;28;20434;-61
2022/08/11 17:35:31;;;;;;;0.50;0.50;;;29.20;69.70;;;;;;5012350;28;20495;-60
2022/08/11 17:38:13;;;;;;;0.50;0.50;;;29.00;69.70;;;;;;5012386;28;20508;-60
2022/08/11 17:48:24;;;;;;;0.60;0.60;;;29.00;69.90;;;;;;5013323;28;20482;-60
2022/08/11 17:49:08;;;;;;;0.50;0.50;;;28.80;71.10;;;;;;5012310;28;20906;-60
2022/08/11 18:00:01;;;;;;;0.50;0.50;;;28.30;72.50;;;;;;5012157;28;20435;-61
2022/08/11 18:05:32;;;;;;;0.50;0.50;;;28.30;71.40;;;;;;5011304;28;20487;-60
